createdAt,value
2023-08-31T00:02:04.901Z,98880.13
2023-08-31T00:04:31.725Z,98885.44
2023-08-31T00:06:58.684Z,98893.00
2023-08-31T00:09:25.606Z,98890.34
2023-08-31T00:11:52.693Z,98888.84
2023-08-31T00:14:19.737Z,98883.88
2023-08-31T00:16:49.096Z,98881.97
2023-08-31T00:19:16.290Z,98877.78
2023-08-31T00:21:43.612Z,98880.84
2023-08-31T00:24:11.317Z,98884.25
2023-08-31T00:26:43.424Z,98883.88
2023-08-31T00:29:11.905Z,98889.16
2023-08-31T00:31:38.821Z,98889.94
2023-08-31T00:34:05.623Z,98891.41
2023-08-31T00:36:33.117Z,98889.16
2023-08-31T00:39:00.003Z,98891.03
2023-08-31T00:41:26.738Z,98889.94
2023-08-31T00:43:53.700Z,98885.34
2023-08-31T00:46:21.200Z,98879.31
2023-08-31T00:48:48.084Z,98880.84
2023-08-31T00:51:15.032Z,98882.38
2023-08-31T00:53:42.294Z,98879.31
2023-08-31T00:56:09.459Z,98882.38
2023-08-31T00:58:36.420Z,98885.38
2023-08-31T01:01:16.234Z,98885.38
2023-08-31T01:03:48.701Z,98888.44
2023-08-31T01:06:18.382Z,98889.19
2023-08-31T01:09:09.184Z,98885.38
2023-08-31T01:11:46.498Z,98894.50
2023-08-31T01:14:18.164Z,98897.91
2023-08-31T01:16:46.781Z,98899.78
2023-08-31T01:19:31.921Z,98889.13
2023-08-31T01:22:01.750Z,98885.69
2023-08-31T01:24:28.912Z,98879.25
2023-08-31T01:26:55.977Z,98884.19
2023-08-31T01:29:22.924Z,98881.09
2023-08-31T01:31:49.868Z,98883.75
2023-08-31T01:34:16.802Z,98891.34
2023-08-31T01:36:48.797Z,98890.22
2023-08-31T01:39:23.683Z,98894.00
2023-08-31T01:41:56.933Z,98902.00
2023-08-31T01:44:24.631Z,98902.34
2023-08-31T01:46:55.119Z,98903.84
2023-08-31T01:49:24.994Z,98909.88
2023-08-31T01:51:51.808Z,98912.88
2023-08-31T01:54:18.621Z,98915.16
2023-08-31T01:56:45.421Z,98902.59
2023-08-31T01:59:12.286Z,98905.97
2023-08-31T02:01:39.110Z,98907.94
2023-08-31T02:04:06.455Z,98909.84
2023-08-31T02:06:33.291Z,98914.03
2023-08-31T02:09:00.079Z,98905.66
2023-08-31T02:11:26.839Z,98911.75
2023-08-31T02:13:53.653Z,98906.44
2023-08-31T02:16:20.410Z,98900.38
2023-08-31T02:18:47.216Z,98897.31
2023-08-31T02:21:14.025Z,98898.09
2023-08-31T02:23:40.760Z,98898.50
2023-08-31T02:26:07.545Z,98909.19
2023-08-31T02:28:34.304Z,98911.09
2023-08-31T02:31:02.895Z,98910.34
2023-08-31T02:33:29.636Z,98916.44
2023-08-31T02:35:56.815Z,98910.78
2023-08-31T02:38:24.190Z,98914.94
2023-08-31T02:40:51.166Z,98913.03
2023-08-31T02:43:18.010Z,98914.91
2023-08-31T02:45:44.841Z,98916.44
2023-08-31T02:48:11.922Z,98919.84
2023-08-31T02:50:39.572Z,98922.50
2023-08-31T02:53:06.624Z,98914.53
2023-08-31T02:55:33.995Z,98915.69
2023-08-31T02:58:00.902Z,98916.06
2023-08-31T03:00:27.709Z,98920.66
2023-08-31T03:02:54.746Z,98921.75
2023-08-31T03:05:24.320Z,98920.97
2023-08-31T03:07:51.087Z,98918.69
2023-08-31T03:10:17.941Z,98917.94
2023-08-31T03:12:44.803Z,98914.91
2023-08-31T03:15:11.672Z,98911.13
2023-08-31T03:17:38.751Z,98914.91
2023-08-31T03:20:07.581Z,98910.78
2023-08-31T03:22:34.745Z,98908.13
2023-08-31T03:25:01.612Z,98906.25
2023-08-31T03:27:28.373Z,98910.03
2023-08-31T03:29:55.211Z,98916.53
2023-08-31T03:32:22.057Z,98911.59
2023-08-31T03:34:48.801Z,98918.81
2023-08-31T03:37:15.608Z,98921.47
2023-08-31T03:39:42.612Z,98925.25
2023-08-31T03:42:10.202Z,98934.75
2023-08-31T03:44:38.676Z,98929.09
2023-08-31T03:47:05.665Z,98944.28
2023-08-31T03:49:33.039Z,98929.47
2023-08-31T03:52:00.512Z,98937.06
2023-08-31T03:54:27.435Z,98944.28
2023-08-31T03:56:54.207Z,98938.97
2023-08-31T03:59:21.262Z,98936.31
2023-08-31T04:01:48.102Z,98946.19
2023-08-31T04:04:14.882Z,98941.63
2023-08-31T04:06:41.693Z,98943.13
2023-08-31T04:09:08.847Z,98941.25
2023-08-31T04:11:35.662Z,98937.81
2023-08-31T04:14:02.472Z,98946.19
2023-08-31T04:16:29.312Z,98949.19
2023-08-31T04:18:56.549Z,98959.81
2023-08-31T04:21:23.352Z,98961.34
2023-08-31T04:23:50.103Z,98965.88
2023-08-31T04:26:18.611Z,98965.50
2023-08-31T04:28:45.614Z,98971.19
2023-08-31T04:31:12.634Z,98971.19
2023-08-31T04:33:40.587Z,98976.47
2023-08-31T04:36:07.439Z,98977.25
2023-08-31T04:38:35.628Z,98980.66
2023-08-31T04:41:02.670Z,98981.78
2023-08-31T04:43:29.540Z,98992.75
2023-08-31T04:45:56.717Z,98990.09
2023-08-31T04:48:23.641Z,98997.66
2023-08-31T04:50:50.555Z,99006.75
2023-08-31T04:53:17.430Z,99005.19
2023-08-31T04:55:44.295Z,99004.00
2023-08-31T04:58:11.130Z,99003.56
2023-08-31T05:00:37.930Z,99007.75
2023-08-31T05:03:05.005Z,99011.91
2023-08-31T05:05:33.321Z,99014.94
2023-08-31T05:08:00.874Z,99029.34
2023-08-31T05:10:27.673Z,99024.78
2023-08-31T05:12:54.667Z,99030.78
2023-08-31T05:15:21.499Z,99035.34
2023-08-31T05:17:49.690Z,99041.38
2023-08-31T05:20:16.645Z,99043.59
2023-08-31T05:22:43.366Z,99051.97
2023-08-31T05:25:10.133Z,99050.72
2023-08-31T05:27:36.865Z,99060.25
2023-08-31T05:30:04.024Z,99052.59
2023-08-31T05:32:30.997Z,99057.88
2023-08-31T05:34:59.402Z,99060.09
2023-08-31T05:37:26.534Z,99068.00
2023-08-31T05:39:53.395Z,99060.00
2023-08-31T05:42:20.266Z,99069.13
2023-08-31T05:44:47.054Z,99077.84
2023-08-31T05:47:13.932Z,99076.59
2023-08-31T05:49:40.693Z,99083.44
2023-08-31T05:52:07.445Z,99083.69
2023-08-31T05:54:34.284Z,99077.94
2023-08-31T05:57:01.025Z,99092.88
2023-08-31T05:59:27.848Z,99086.13
2023-08-31T06:01:56.256Z,99091.66
2023-08-31T06:04:23.347Z,99094.44
2023-08-31T06:06:53.046Z,99098.16
2023-08-31T06:09:19.928Z,99104.00
2023-08-31T06:11:46.825Z,99106.91
2023-08-31T06:14:13.563Z,99096.97
2023-08-31T06:16:40.405Z,99104.00
2023-08-31T06:19:07.291Z,99110.28
2023-08-31T06:21:34.061Z,99114.13
2023-08-31T06:24:00.831Z,99119.97
2023-08-31T06:26:27.829Z,99128.53
2023-08-31T06:28:54.655Z,99130.00
2023-08-31T06:31:21.450Z,99139.28
2023-08-31T06:33:48.190Z,99143.19
2023-08-31T06:36:15.018Z,99142.59
2023-08-31T06:38:41.949Z,99150.88
2023-08-31T06:41:10.175Z,99152.13
2023-08-31T06:43:36.999Z,99149.00
2023-08-31T06:46:18.437Z,99151.69
2023-08-31T06:48:50.512Z,99146.16
2023-08-31T06:51:17.373Z,99149.19
2023-08-31T06:53:44.800Z,99147.13
2023-08-31T06:56:11.658Z,99148.66
2023-08-31T06:58:38.381Z,99149.59
2023-08-31T07:01:08.094Z,99155.72
2023-08-31T07:03:35.107Z,99158.91
2023-08-31T07:06:02.214Z,99160.75
2023-08-31T07:08:29.015Z,99158.03
2023-08-31T07:10:55.998Z,99156.25
2023-08-31T07:13:22.827Z,99162.25
2023-08-31T07:15:51.279Z,99166.75
2023-08-31T07:18:18.172Z,99172.34
2023-08-31T07:20:46.962Z,99180.00
2023-08-31T07:23:13.961Z,99172.56
2023-08-31T07:25:41.126Z,99175.47
2023-08-31T07:28:08.081Z,99185.34
2023-08-31T07:30:34.955Z,99177.84
2023-08-31T07:33:13.876Z,99177.88
2023-08-31T07:35:51.273Z,99185.19
2023-08-31T07:38:18.035Z,99188.41
2023-08-31T07:40:44.787Z,99185.91
2023-08-31T07:43:12.745Z,99185.34
2023-08-31T07:45:39.897Z,99185.06
2023-08-31T07:48:07.954Z,99188.00
2023-08-31T07:50:35.542Z,99190.81
2023-08-31T07:53:02.306Z,99191.22
2023-08-31T07:55:29.074Z,99181.03
2023-08-31T07:57:55.856Z,99188.28
2023-08-31T08:00:22.685Z,99188.13
2023-08-31T08:02:50.882Z,99186.34
2023-08-31T08:05:18.963Z,99200.06
2023-08-31T08:07:47.046Z,99199.19
2023-08-31T08:10:15.655Z,99196.91
2023-08-31T08:12:47.374Z,99194.03
2023-08-31T08:15:14.840Z,99197.19
2023-08-31T08:17:41.777Z,99198.25
2023-08-31T08:20:09.235Z,99202.63
2023-08-31T08:22:37.211Z,99206.53
2023-08-31T08:25:04.488Z,99212.53
2023-08-31T08:27:32.832Z,99212.53
2023-08-31T08:30:00.470Z,99215.50
2023-08-31T08:32:27.264Z,99218.84
2023-08-31T08:34:54.209Z,99222.59
2023-08-31T08:37:21.088Z,99225.16
2023-08-31T08:39:52.505Z,99228.34
2023-08-31T08:42:21.621Z,99229.66
2023-08-31T08:44:51.306Z,99233.22
2023-08-31T08:47:19.124Z,99230.81
2023-08-31T08:49:46.276Z,99228.72
2023-08-31T08:52:13.998Z,99223.94
2023-08-31T08:54:41.337Z,99216.75
2023-08-31T08:57:08.170Z,99224.69
2023-08-31T08:59:35.080Z,99216.28
2023-08-31T09:02:01.978Z,99232.97
2023-08-31T09:04:31.720Z,99232.66
2023-08-31T09:06:58.508Z,99244.09
2023-08-31T09:09:25.286Z,99241.09
2023-08-31T09:11:52.471Z,99248.91
2023-08-31T09:14:20.562Z,99254.00
2023-08-31T09:16:48.971Z,99254.13
2023-08-31T09:19:28.382Z,99261.75
2023-08-31T09:21:57.102Z,99268.03
2023-08-31T09:24:24.475Z,99268.28
2023-08-31T09:26:56.608Z,99262.69
2023-08-31T09:29:23.637Z,99272.34
2023-08-31T09:31:50.419Z,99268.69
2023-08-31T09:34:18.213Z,99275.03
2023-08-31T09:36:45.742Z,99267.06
2023-08-31T09:39:15.273Z,99277.16
2023-08-31T09:41:55.888Z,99272.88
2023-08-31T09:44:23.078Z,99279.47
2023-08-31T09:46:49.989Z,99277.41
2023-08-31T09:49:18.404Z,99284.59
2023-08-31T09:51:49.914Z,99283.91
2023-08-31T09:54:19.552Z,99287.03
2023-08-31T09:56:47.738Z,99294.03
2023-08-31T09:59:18.418Z,99289.75
2023-08-31T10:01:46.710Z,99298.19
2023-08-31T10:04:13.804Z,99288.59
2023-08-31T10:06:41.389Z,99289.19
2023-08-31T10:09:12.916Z,99289.47
2023-08-31T10:11:41.268Z,99294.28
2023-08-31T10:14:09.115Z,99298.88
2023-08-31T10:16:36.056Z,99301.41
2023-08-31T10:19:03.980Z,99297.19
2023-08-31T10:21:31.871Z,99295.34
2023-08-31T10:23:58.742Z,99301.47
2023-08-31T10:26:32.698Z,99304.16
2023-08-31T10:29:00.647Z,99301.34
2023-08-31T10:31:32.516Z,99306.44
2023-08-31T10:34:11.102Z,99310.34
2023-08-31T10:36:51.129Z,99317.78
2023-08-31T10:39:22.310Z,99312.94
2023-08-31T10:41:58.432Z,99318.69
2023-08-31T10:44:26.671Z,99318.16
2023-08-31T10:46:54.574Z,99319.44
2023-08-31T10:49:24.822Z,99321.56
2023-08-31T10:52:01.494Z,99324.59
2023-08-31T10:54:35.824Z,99311.88
2023-08-31T10:57:09.546Z,99321.34
2023-08-31T10:59:53.559Z,99322.53
2023-08-31T11:02:41.601Z,99319.47
2023-08-31T11:05:18.817Z,99323.63
2023-08-31T11:07:50.984Z,99330.22
2023-08-31T11:10:22.093Z,99327.69
2023-08-31T11:12:50.973Z,99336.25
2023-08-31T11:15:23.697Z,99331.47
2023-08-31T11:17:55.122Z,99335.91
2023-08-31T11:20:23.829Z,99344.09
2023-08-31T11:22:52.277Z,99347.25
2023-08-31T11:25:19.353Z,99340.31
2023-08-31T11:27:56.450Z,99347.94
2023-08-31T11:30:23.765Z,99337.09
2023-08-31T11:32:52.783Z,99335.53
2023-08-31T11:35:20.531Z,99334.97
2023-08-31T11:37:51.624Z,99342.34
2023-08-31T11:40:18.608Z,99333.09
2023-08-31T11:42:45.620Z,99337.13
2023-08-31T11:45:13.716Z,99338.44
2023-08-31T11:47:49.429Z,99342.03
2023-08-31T11:50:17.287Z,99342.25
2023-08-31T11:52:44.329Z,99344.31
2023-08-31T11:55:13.160Z,99341.06
2023-08-31T11:57:39.921Z,99341.69
2023-08-31T12:00:07.435Z,99348.31
2023-08-31T12:02:37.430Z,99350.69
2023-08-31T12:05:06.810Z,99360.63
2023-08-31T12:07:41.371Z,99359.63
2023-08-31T12:10:09.092Z,99363.59
2023-08-31T12:12:36.014Z,99360.47
2023-08-31T12:15:04.938Z,99360.47
2023-08-31T12:17:31.925Z,99356.53
2023-08-31T12:20:06.213Z,99343.31
2023-08-31T12:22:33.147Z,99355.53
2023-08-31T12:24:59.997Z,99347.66
2023-08-31T12:27:28.224Z,99354.91
2023-08-31T12:29:55.348Z,99353.56
2023-08-31T12:32:22.425Z,99355.09
2023-08-31T12:34:49.408Z,99353.56
2023-08-31T12:37:16.824Z,99353.13
2023-08-31T12:39:46.868Z,99347.63
2023-08-31T12:42:23.339Z,99348.38
2023-08-31T12:44:50.836Z,99347.28
2023-08-31T12:47:17.758Z,99350.97
2023-08-31T12:49:44.561Z,99350.69
2023-08-31T12:52:11.330Z,99346.00
2023-08-31T12:54:38.159Z,99348.03
2023-08-31T12:57:06.284Z,99350.41
2023-08-31T12:59:33.425Z,99348.72
2023-08-31T13:02:00.940Z,99340.47
2023-08-31T13:04:27.722Z,99342.81
2023-08-31T13:06:55.710Z,99344.78
2023-08-31T13:09:22.490Z,99341.91
2023-08-31T13:11:49.306Z,99337.59
2023-08-31T13:14:16.135Z,99341.16
2023-08-31T13:16:42.983Z,99329.78
2023-08-31T13:19:09.811Z,99333.59
2023-08-31T13:21:36.680Z,99332.22
2023-08-31T13:24:03.626Z,99336.69
2023-08-31T13:26:30.441Z,99332.66
2023-08-31T13:28:57.279Z,99333.00
2023-08-31T13:31:24.223Z,99333.50
2023-08-31T13:33:51.027Z,99329.31
2023-08-31T13:36:17.834Z,99329.59
2023-08-31T13:38:44.628Z,99330.84
2023-08-31T13:41:11.513Z,99331.41
2023-08-31T13:43:38.298Z,99326.41
2023-08-31T13:46:05.585Z,99332.00
2023-08-31T13:48:33.656Z,99324.13
2023-08-31T13:51:00.700Z,99327.88
2023-08-31T13:53:27.655Z,99330.38
2023-08-31T13:55:54.599Z,99334.84
2023-08-31T13:58:21.422Z,99342.66
2023-08-31T14:00:48.506Z,99345.75
2023-08-31T14:03:15.542Z,99345.53
2023-08-31T14:05:42.380Z,99345.56
2023-08-31T14:08:09.381Z,99338.31
2023-08-31T14:10:40.633Z,99345.53
2023-08-31T14:13:08.027Z,99341.94
2023-08-31T14:15:34.755Z,99342.97
2023-08-31T14:18:01.665Z,99342.81
2023-08-31T14:20:28.612Z,99334.91
2023-08-31T14:22:55.450Z,99345.84
2023-08-31T14:25:25.196Z,99336.72
2023-08-31T14:27:52.018Z,99333.50
2023-08-31T14:30:18.767Z,99345.38
2023-08-31T14:32:46.050Z,99339.84
2023-08-31T14:35:12.922Z,99349.25
2023-08-31T14:37:39.891Z,99338.31
2023-08-31T14:40:08.351Z,99348.28
2023-08-31T14:42:35.402Z,99346.22
2023-08-31T14:45:02.770Z,99354.47
2023-08-31T14:47:29.733Z,99352.75
2023-08-31T14:49:56.721Z,99360.22
2023-08-31T14:52:23.757Z,99360.44
2023-08-31T14:54:50.676Z,99358.94
2023-08-31T14:57:17.643Z,99359.13
2023-08-31T14:59:44.404Z,99359.78
2023-08-31T15:02:11.265Z,99359.59
2023-08-31T15:04:38.107Z,99360.69
2023-08-31T15:07:05.946Z,99351.69
2023-08-31T15:09:33.086Z,99348.16
2023-08-31T15:11:59.936Z,99347.16
2023-08-31T15:14:26.650Z,99347.06
2023-08-31T15:16:53.396Z,99345.91
2023-08-31T15:19:20.162Z,99349.66
2023-08-31T15:21:46.968Z,99350.97
2023-08-31T15:24:14.205Z,99347.72
2023-08-31T15:26:41.107Z,99349.06
2023-08-31T15:29:07.965Z,99348.41
2023-08-31T15:31:34.774Z,99352.88
2023-08-31T15:34:01.552Z,99352.09
2023-08-31T15:36:28.358Z,99351.84
2023-08-31T15:38:55.146Z,99351.13
2023-08-31T15:41:22.083Z,99359.09
2023-08-31T15:43:49.028Z,99350.06
2023-08-31T15:46:17.082Z,99363.88
2023-08-31T15:48:43.945Z,99360.28
2023-08-31T15:51:11.323Z,99358.44
2023-08-31T15:53:38.193Z,99354.16
2023-08-31T15:56:05.821Z,99359.97
2023-08-31T15:58:32.683Z,99367.75
2023-08-31T16:01:02.773Z,99361.53
2023-08-31T16:03:34.197Z,99368.94
2023-08-31T16:06:01.369Z,99372.34
2023-08-31T16:08:28.788Z,99368.03
2023-08-31T16:10:55.779Z,99369.16
2023-08-31T16:13:22.785Z,99360.69
2023-08-31T16:15:50.628Z,99362.44
2023-08-31T16:18:17.792Z,99366.53
2023-08-31T16:20:45.042Z,99368.22
2023-08-31T16:23:12.316Z,99369.03
2023-08-31T16:25:39.204Z,99378.34
2023-08-31T16:28:06.181Z,99372.97
2023-08-31T16:30:33.248Z,99369.09
2023-08-31T16:33:00.187Z,99370.09
2023-08-31T16:35:27.050Z,99361.88
2023-08-31T16:37:53.855Z,99363.75
2023-08-31T16:40:21.713Z,99373.31
2023-08-31T16:42:48.599Z,99375.97
2023-08-31T16:45:15.503Z,99375.53
2023-08-31T16:47:42.805Z,99383.56
2023-08-31T16:50:10.863Z,99383.88
2023-08-31T16:52:37.729Z,99379.53
2023-08-31T16:55:05.295Z,99375.19
2023-08-31T16:57:32.139Z,99376.22
2023-08-31T16:59:59.108Z,99379.19
2023-08-31T17:02:26.032Z,99380.63
2023-08-31T17:04:53.830Z,99385.53
2023-08-31T17:07:20.927Z,99399.66
2023-08-31T17:09:47.944Z,99398.41
2023-08-31T17:12:16.144Z,99404.03
2023-08-31T17:14:46.215Z,99395.84
2023-08-31T17:17:13.116Z,99406.41
2023-08-31T17:19:40.047Z,99402.53
2023-08-31T17:22:06.973Z,99408.59
2023-08-31T17:24:33.772Z,99412.84
2023-08-31T17:27:00.897Z,99414.44
2023-08-31T17:29:27.875Z,99420.94
2023-08-31T17:31:54.705Z,99415.94
2023-08-31T17:34:21.630Z,99419.19
2023-08-31T17:36:48.463Z,99415.66
2023-08-31T17:39:15.436Z,99425.88
2023-08-31T17:41:42.437Z,99426.91
2023-08-31T17:44:09.718Z,99423.22
2023-08-31T17:46:37.054Z,99434.03
2023-08-31T17:49:04.622Z,99441.19
2023-08-31T17:51:31.920Z,99445.13
2023-08-31T17:54:01.878Z,99448.50
2023-08-31T17:56:29.311Z,99449.41
2023-08-31T17:58:57.405Z,99464.00
2023-08-31T18:01:25.306Z,99464.44
2023-08-31T18:03:52.937Z,99468.69
2023-08-31T18:06:20.214Z,99472.97
2023-08-31T18:08:48.374Z,99475.75
2023-08-31T18:11:16.275Z,99477.00
2023-08-31T18:13:43.939Z,99484.69
2023-08-31T18:16:12.786Z,99481.69
2023-08-31T18:18:40.682Z,99486.72
2023-08-31T18:21:07.908Z,99490.97
2023-08-31T18:23:36.285Z,99496.00
2023-08-31T18:26:04.332Z,99486.88
2023-08-31T18:28:31.566Z,99502.97
2023-08-31T18:31:04.169Z,99506.06
2023-08-31T18:33:32.382Z,99503.00
2023-08-31T18:36:02.566Z,99499.94
2023-08-31T18:38:31.268Z,99511.06
2023-08-31T18:40:58.741Z,99519.06
2023-08-31T18:43:26.424Z,99512.25
2023-08-31T18:45:55.816Z,99515.34
2023-08-31T18:48:23.274Z,99517.63
2023-08-31T18:51:01.140Z,99520.69
2023-08-31T18:53:29.649Z,99518.44
2023-08-31T18:56:02.127Z,99523.78
2023-08-31T18:58:30.310Z,99530.63
2023-08-31T19:01:01.020Z,99530.66
2023-08-31T19:03:29.988Z,99527.22
2023-08-31T19:05:57.629Z,99528.38
2023-08-31T19:08:25.012Z,99528.78
2023-08-31T19:10:52.337Z,99530.28
2023-08-31T19:13:19.756Z,99538.28
2023-08-31T19:15:48.140Z,99541.31
2023-08-31T19:18:15.734Z,99548.19
2023-08-31T19:20:43.713Z,99550.84
2023-08-31T19:23:11.117Z,99548.97
2023-08-31T19:25:40.751Z,99541.72
2023-08-31T19:28:08.239Z,99549.69
2023-08-31T19:30:37.294Z,99555.78
2023-08-31T19:33:05.088Z,99558.06
2023-08-31T19:35:55.015Z,99552.00
2023-08-31T19:38:20.912Z,99554.25
2023-08-31T19:40:49.290Z,99556.56
2023-08-31T19:43:19.959Z,99561.84
2023-08-31T19:45:47.990Z,99564.16
2023-08-31T19:48:15.836Z,99576.28
2023-08-31T19:50:43.506Z,99575.53
2023-08-31T19:53:11.016Z,99572.44
2023-08-31T19:55:38.805Z,99570.19
2023-08-31T19:58:06.316Z,99568.66
2023-08-31T20:00:33.738Z,99563.69
2023-08-31T20:03:01.122Z,99572.81
2023-08-31T20:05:29.008Z,99570.88
2023-08-31T20:07:56.413Z,99567.84
2023-08-31T20:10:23.805Z,99573.09
2023-08-31T20:12:51.214Z,99573.47
2023-08-31T20:15:18.427Z,99567.03
2023-08-31T20:17:45.619Z,99570.81
2023-08-31T20:20:14.312Z,99572.31
2023-08-31T20:22:42.267Z,99571.53
2023-08-31T20:25:10.318Z,99576.44
2023-08-31T20:27:38.180Z,99578.69
2023-08-31T20:30:06.347Z,99581.34
2023-08-31T20:32:35.051Z,99582.09
2023-08-31T20:35:02.132Z,99588.91
2023-08-31T20:37:28.961Z,99590.03
2023-08-31T20:39:55.677Z,99591.13
2023-08-31T20:42:22.467Z,99592.59
2023-08-31T20:44:49.281Z,99596.38
2023-08-31T20:47:20.423Z,99595.63
2023-08-31T20:49:47.265Z,99598.63
2023-08-31T20:52:14.648Z,99603.56
2023-08-31T20:54:41.478Z,99601.59
2023-08-31T20:57:08.218Z,99603.09
2023-08-31T20:59:34.971Z,99605.31
2023-08-31T21:02:02.174Z,99609.84
2023-08-31T21:04:29.014Z,99606.00
2023-08-31T21:06:55.757Z,99606.75
2023-08-31T21:09:22.916Z,99614.25
2023-08-31T21:11:49.996Z,99618.03
2023-08-31T21:14:16.785Z,99617.66
2023-08-31T21:16:43.618Z,99623.34
2023-08-31T21:19:12.334Z,99619.56
2023-08-31T21:21:39.087Z,99621.41
2023-08-31T21:24:06.039Z,99616.88
2023-08-31T21:26:36.108Z,99622.22
2023-08-31T21:29:02.864Z,99624.88
2023-08-31T21:31:29.669Z,99621.94
2023-08-31T21:33:56.513Z,99627.25
2023-08-31T21:36:23.477Z,99627.63
2023-08-31T21:38:50.322Z,99623.09
2023-08-31T21:41:17.022Z,99627.25
2023-08-31T21:43:43.829Z,99630.28
2023-08-31T21:46:10.645Z,99630.25
2023-08-31T21:48:37.458Z,99633.69
2023-08-31T21:51:04.467Z,99639.34
2023-08-31T21:53:31.291Z,99637.09
2023-08-31T21:56:02.565Z,99645.38
2023-08-31T21:58:29.319Z,99646.88
2023-08-31T22:00:56.168Z,99644.63
2023-08-31T22:03:23.220Z,99646.88
2023-08-31T22:05:49.998Z,99653.66
2023-08-31T22:08:17.074Z,99653.75
2023-08-31T22:10:44.042Z,99653.75
2023-08-31T22:13:10.830Z,99657.91
2023-08-31T22:15:37.687Z,99648.50
2023-08-31T22:18:05.001Z,99658.50
2023-08-31T22:20:32.064Z,99658.94
2023-08-31T22:23:00.414Z,99665.38
2023-08-31T22:25:28.470Z,99649.41
2023-08-31T22:27:58.084Z,99660.19
2023-08-31T22:30:26.136Z,99664.72
2023-08-31T22:32:54.079Z,99659.44
2023-08-31T22:35:20.901Z,99663.31
2023-08-31T22:37:51.368Z,99667.19
2023-08-31T22:40:18.118Z,99666.06
2023-08-31T22:42:45.405Z,99671.78
2023-08-31T22:45:12.673Z,99676.00
2023-08-31T22:47:39.950Z,99676.41
2023-08-31T22:50:07.382Z,99677.59
2023-08-31T22:52:34.178Z,99678.00
2023-08-31T22:55:01.167Z,99676.50
2023-08-31T22:57:28.251Z,99671.19
2023-08-31T22:59:55.042Z,99675.75
2023-08-31T23:02:21.986Z,99681.78
2023-08-31T23:04:49.903Z,99678.78
2023-08-31T23:07:16.802Z,99679.16
2023-08-31T23:09:43.754Z,99674.28
2023-08-31T23:12:10.484Z,99667.50
2023-08-31T23:14:37.371Z,99678.16
2023-08-31T23:17:04.305Z,99682.78
2023-08-31T23:19:31.075Z,99677.44
2023-08-31T23:21:57.921Z,99690.75
2023-08-31T23:24:24.728Z,99683.16
2023-08-31T23:26:51.491Z,99678.59
2023-08-31T23:29:18.633Z,99685.47
2023-08-31T23:31:46.655Z,99687.38
2023-08-31T23:34:13.711Z,99679.41
2023-08-31T23:36:40.581Z,99685.91
2023-08-31T23:39:10.444Z,99686.69
2023-08-31T23:41:38.201Z,99688.97
2023-08-31T23:44:05.436Z,99686.72
2023-08-31T23:46:32.434Z,99687.84
2023-08-31T23:48:59.215Z,99698.53
2023-08-31T23:51:27.992Z,99701.94
2023-08-31T23:53:55.830Z,99701.97
2023-08-31T23:56:22.878Z,99698.94
2023-08-31T23:58:49.805Z,99708.44
